Nearby METAR Reports

 

KMQY - Smyrna, Tennessee, USA
Distance from station: WNW 14mi, 22km
Updated: Fri, 20-May-2022 1:56am CDT
Clear
Clear
 Wind from S
Wind: S 6 mph , 9 km/h
Temperature: 75°F , 24°C
Dew Point: 64°F , 18°C
Humidity: 69%
Barometer: 29.75 inHg , 1007.5 hPa
Clouds: Clear
Visibility: 10 miles , 16 km
2022/05/20 06:56 KMQY 200656Z AUTO 17005KT 10SM CLR 24/18 A2975 RMK AO2 SLP076 T02390183
KSYI - Shelbyville, Tennessee, USA
Distance from station: SSW 25mi, 40km
Updated: Fri, 20-May-2022 2:35am CDT
Clear
Clear
 Wind from S
Wind: S 8 mph , 13 km/h
Temperature: 72°F , 22°C
Dew Point: 64°F , 18°C
Humidity: 78%
Barometer: 29.77 inHg , 1008.1 hPa
Clouds: Clear
Visibility: 10 miles , 16 km
2022/05/20 07:35 KSYI 200735Z AUTO 18007KT 10SM CLR 22/18 A2977 RMK A01
KBNA - Nashville, Tennessee, USA
Distance from station: NW 25mi, 41km
Updated: Fri, 20-May-2022 1:53am CDT
Few Clouds
Few Clouds
 Wind from SSW
Wind: SSW 10 mph , 17 km/h, Gust: 20 mph , 31 km/h
Temperature: 79°F , 26°C
Dew Point: 63°F , 17°C
Humidity: 58%
Barometer: 29.74 inHg , 1007.1 hPa
Clouds: Few Clouds
Visibility: 10 miles , 16 km
Cloud details: Few Clouds 10000 ft
Few Clouds 25000 ft
2022/05/20 06:53 KBNA 200653Z 20009G17KT 10SM FEW100 FEW250 26/17 A2974 RMK AO2 SLP061 T02610167 $
 
KRNC - Mcminnville, Tennessee, USA
Distance from station: ESE 30mi, 48km
Updated: Fri, 20-May-2022 2:35am CDT
Clear
Clear
 Wind from SW
Wind: SW 7 mph , 11 km/h
Temperature: 75°F , 24°C
Dew Point: 63°F , 17°C
Humidity: 65%
Barometer: 29.78 inHg , 1008.5 hPa
Clouds: Clear
Visibility: 10 miles , 16 km
2022/05/20 07:35 KRNC 200735Z AUTO 23006KT 10SM CLR 24/17 A2978 RMK A01
KM33 - Gallatin, Tennessee, USA
Distance from station: N 33mi, 54km
Updated: Wed, 23-May-2018 7:55pm CDT
NOT Current
Clear
Clear
 Wind from calm
Wind: Calm
Temperature: 79°F , 26°C
Dew Point: 66°F , 19°C
Humidity: 65%
Barometer: 30.10 inHg , 1019.3 hPa
Clouds: Clear
Visibility: 10 miles , 16 km
2018/05/24 00:55 KM33 240055Z AUTO 00000KT 10SM CLR 26/19 A3010 RMK A01
KTHA - Tullahoma, Tennessee, USA
Distance from station: S 36mi, 59km
Updated: Fri, 20-May-2022 2:35am CDT
Few Clouds
Few Clouds
 Wind from SSW
Wind: SSW 7 mph , 11 km/h, Gust: 15 mph , 24 km/h
Temperature: 75°F , 24°C
Dew Point: 63°F , 17°C
Humidity: 65%
Barometer: 29.79 inHg , 1008.8 hPa
Clouds: Few Clouds
Visibility: 10 miles , 16 km
Cloud details: Few Clouds 4100 ft
2022/05/20 07:35 KTHA 200735Z AUTO 20006G13KT 10SM FEW041 24/17 A2979 RMK A01
 
KJWN - Nashv/Jc Tune, Tennessee, USA
Distance from station: WNW 37mi, 60km
Updated: Fri, 20-May-2022 2:35am CDT
Overcast
Overcast
 Wind from SSW
Wind: SSW 12 mph , 19 km/h
Temperature: 77°F , 25°C
Dew Point: 64°F , 18°C
Humidity: 65%
Barometer: 29.70 inHg , 1005.8 hPa
Clouds: Overcast
Visibility: 10 miles , 16 km
Cloud details: Few Clouds 4300 ft
Overcast 6000 ft
2022/05/20 07:35 KJWN 200735Z AUTO 20010KT 10SM FEW043 OVC060 25/18 A2970 RMK A01
KSRB - Sparta, Tennessee, USA
Distance from station: ENE 45mi, 72km
Updated: Fri, 20-May-2022 2:35am CDT
Clear
Clear
 Wind from S
Wind: S 5 mph , 7 km/h
Temperature: 72°F , 22°C
Dew Point: 63°F , 17°C
Humidity: 73%
Barometer: 29.79 inHg , 1008.8 hPa
Clouds: Clear
Visibility: 10 miles , 16 km
2022/05/20 07:35 KSRB 200735Z AUTO 17004KT 10SM CLR 22/17 A2979 RMK A01
K1M5 - Portland, Tennessee, USA
Distance from station: NNW 49mi, 78km
Updated: Fri, 20-May-2022 2:35am CDT
Partly cloudy
Partly cloudy
 Wind from SSW
Wind: SSW 13 mph , 20 km/h
Temperature: 75°F , 24°C
Dew Point: 66°F , 19°C
Humidity: 74%
Barometer: 29.71 inHg , 1006.1 hPa
Clouds: Partly cloudy
Visibility: 10 miles , 16 km
Cloud details: Few Clouds 4000 ft
Partly cloudy 7000 ft
2022/05/20 07:35 K1M5 200735Z AUTO 20011KT 10SM FEW040 SCT070 24/19 A2971 RMK A01